Time;durP1;ratioP1;P1;durP2;ratioP2;P2;SDS_P1;SDS_P2;PMS_P1;PMS_P2;Temp;Humidity;BMP_temperature;BMP_pressure;BME280_temperature;BME280_humidity;BME280_pressure;Samples;Min_cycle;Max_cycle;Signal;HPM_P1;HPM_P2
2021/12/24 00:02:40;;;;;;;62.42;28.60;;;5.80;99.90;;;;;;2104247;67;20269;-71
2021/12/24 00:05:21;;;;;;;55.42;29.23;;;5.80;99.90;;;;;;2111663;67;20231;-70
2021/12/24 00:08:04;;;;;;;47.60;25.75;;;5.80;99.90;;;;;;2112344;67;20268;-70
2021/12/24 00:10:49;;;;;;;57.15;26.95;;;5.80;99.90;;;;;;2115633;67;20238;-70
2021/12/24 00:13:36;;;;;;;53.20;26.38;;;5.80;99.90;;;;;;2118629;67;20345;-71
2021/12/24 00:16:27;;;;;;;49.75;27.02;;;5.80;99.90;;;;;;2112728;67;20703;-69
2021/12/24 00:36:54;;;;;;;72.25;30.88;;;5.90;99.90;;;;;;2112872;67;20241;-69
2021/12/24 00:39:43;;;;;;;70.18;32.22;;;6.00;99.90;;;;;;2130056;66;20776;-69
2021/12/24 00:42:25;;;;;;;52.15;26.02;;;5.90;99.90;;;;;;2140248;66;20237;-69
2021/12/24 00:45:08;;;;;;;64.18;28.17;;;5.90;99.90;;;;;;2140724;66;20178;-70
2021/12/24 00:47:52;;;;;;;51.28;25.88;;;6.00;99.90;;;;;;2135863;66;20382;-69
2021/12/24 00:50:51;;;;;;;55.35;27.50;;;5.90;99.90;;;;;;2129723;67;20812;-69
2021/12/24 00:56:19;;;;;;;50.03;22.63;;;5.90;99.90;;;;;;2131066;67;20376;-69
2021/12/24 00:59:01;;;;;;;49.63;25.38;;;6.00;99.90;;;;;;2126520;67;20246;-70
2021/12/24 01:01:45;;;;;;;53.03;25.77;;;6.00;99.90;;;;;;2125361;67;21389;-69
2021/12/24 01:04:31;;;;;;;56.88;26.88;;;6.00;99.90;;;;;;2108137;67;20727;-69
2021/12/24 01:07:15;;;;;;;46.72;22.75;;;6.00;99.90;;;;;;2108838;67;20181;-69
2021/12/24 01:09:57;;;;;;;51.20;24.50;;;6.40;99.90;;;;;;2108758;67;20390;-69
2021/12/24 01:12:39;;;;;;;64.60;26.45;;;6.10;99.90;;;;;;2095630;68;20298;-69
2021/12/24 01:15:24;;;;;;;47.45;22.98;;;6.10;99.90;;;;;;2097224;67;20361;-67
2021/12/24 01:18:15;;;;;;;31.27;17.73;;;6.10;99.90;;;;;;2109273;67;20185;-68
2021/12/24 01:21:24;;;;;;;48.50;23.60;;;6.20;99.90;;;;;;2104609;67;20280;-69
2021/12/24 01:24:07;;;;;;;46.17;23.73;;;6.20;99.90;;;;;;2108736;67;20186;-69
2021/12/24 01:27:03;;;;;;;48.78;25.25;;;6.20;99.90;;;;;;2114652;67;20284;-69
2021/12/24 01:38:58;;;;;;;39.25;17.92;;;6.30;99.90;;;;;;2112173;67;20205;-69
2021/12/24 01:44:47;;;;;;;32.75;16.70;;;6.40;99.90;;;;;;2116078;67;20827;-69
2021/12/24 01:47:29;;;;;;;36.05;18.20;;;6.40;99.90;;;;;;2110573;67;20749;-69
2021/12/24 01:50:12;;;;;;;37.20;18.63;;;6.40;99.90;;;;;;2098582;68;20179;-69
2021/12/24 01:52:57;;;;;;;28.73;15.65;;;6.40;99.90;;;;;;2096927;68;20404;-69
2021/12/24 01:55:45;;;;;;;29.05;14.73;;;6.40;99.90;;;;;;2109742;67;20712;-68
2021/12/24 01:58:28;;;;;;;35.65;17.92;;;6.50;99.90;;;;;;2098830;67;20219;-69
2021/12/24 02:01:13;;;;;;;25.02;12.13;;;6.50;99.90;;;;;;2102960;68;20975;-70
2021/12/24 02:03:59;;;;;;;23.88;13.27;;;6.50;99.90;;;;;;2109582;67;20295;-68
2021/12/24 02:06:44;;;;;;;30.00;15.77;;;6.60;99.90;;;;;;2118699;67;20227;-68
2021/12/24 02:09:29;;;;;;;33.03;15.55;;;6.60;99.90;;;;;;2120015;67;20558;-68
2021/12/24 02:12:15;;;;;;;25.67;13.73;;;6.60;99.90;;;;;;2124196;67;20665;-69
2021/12/24 02:15:01;;;;;;;21.90;12.73;;;6.60;99.90;;;;;;2125303;67;20250;-69
2021/12/24 02:29:36;;;;;;;31.33;13.90;;;6.70;99.90;;;;;;2116601;67;20263;-69
2021/12/24 02:32:21;;;;;;;21.73;12.80;;;6.70;99.90;;;;;;2107476;67;20235;-69
2021/12/24 02:35:04;;;;;;;28.85;13.45;;;6.70;99.90;;;;;;2119687;67;20525;-71
2021/12/24 02:37:49;;;;;;;29.00;15.25;;;7.40;99.90;;;;;;2125769;67;20659;-69
2021/12/24 02:40:33;;;;;;;29.35;14.40;;;6.70;99.90;;;;;;2129696;66;20313;-69
2021/12/24 02:43:21;;;;;;;32.08;14.50;;;6.80;99.90;;;;;;2133813;67;20259;-70
2021/12/24 02:46:13;;;;;;;26.63;14.68;;;6.80;99.90;;;;;;2131798;67;20226;-69
2021/12/24 02:54:37;;;;;;;27.08;14.35;;;6.90;99.90;;;;;;2121684;67;20184;-70
2021/12/24 02:57:26;;;;;;;27.20;13.73;;;6.80;99.90;;;;;;2122779;67;20327;-68
2021/12/24 03:00:19;;;;;;;30.33;14.68;;;6.80;99.90;;;;;;2110179;67;20169;-68
2021/12/24 03:03:01;;;;;;;40.72;20.90;;;6.80;99.90;;;;;;2106782;67;20350;-70
2021/12/24 03:05:42;;;;;;;34.05;17.52;;;6.80;99.90;;;;;;2113590;67;20180;-70
2021/12/24 03:08:24;;;;;;;30.38;13.85;;;6.90;99.90;;;;;;2104297;67;20686;-69
2021/12/24 03:11:08;;;;;;;27.60;13.55;;;6.90;99.90;;;;;;2097513;68;20266;-69
2021/12/24 03:13:54;;;;;;;26.05;12.68;;;7.00;99.90;;;;;;2097652;68;20421;-70
2021/12/24 03:16:40;;;;;;;30.48;14.65;;;7.10;99.90;;;;;;2094699;68;20266;-70
2021/12/24 03:19:28;;;;;;;29.02;14.40;;;7.10;99.90;;;;;;2102482;67;20337;-69
2021/12/24 03:22:29;;;;;;;37.13;18.15;;;7.10;99.90;;;;;;2108747;67;20189;-69
2021/12/24 03:25:15;;;;;;;41.38;17.25;;;7.20;99.90;;;;;;2118435;67;20646;-70
2021/12/24 03:28:00;;;;;;;37.95;17.58;;;7.30;99.90;;;;;;2119920;67;20214;-71
2021/12/24 03:30:42;;;;;;;35.05;18.17;;;7.20;99.90;;;;;;2120132;67;20293;-70
2021/12/24 03:33:24;;;;;;;42.72;18.67;;;7.30;99.90;;;;;;2120376;67;20227;-69
2021/12/24 03:36:09;;;;;;;48.67;21.05;;;7.30;99.90;;;;;;2112513;67;20320;-69
2021/12/24 03:38:53;;;;;;;46.22;18.60;;;7.40;99.90;;;;;;2106983;67;20326;-68
2021/12/24 03:41:35;;;;;;;63.35;23.23;;;7.40;99.90;;;;;;2112918;67;20221;-70
2021/12/24 03:44:19;;;;;;;60.95;22.05;;;7.50;99.90;;;;;;2109137;67;20178;-70
2021/12/24 03:47:10;;;;;;;52.67;22.05;;;7.50;99.90;;;;;;2110716;67;20185;-70
2021/12/24 03:50:09;;;;;;;59.58;22.27;;;7.50;99.90;;;;;;2118730;67;20369;-69
2021/12/24 03:55:54;;;;;;;66.95;23.23;;;7.70;99.90;;;;;;2119615;67;20431;-69
2021/12/24 03:58:38;;;;;;;76.57;26.67;;;7.60;99.90;;;;;;2125645;67;20196;-70
2021/12/24 04:01:23;;;;;;;67.05;25.23;;;7.70;99.90;;;;;;2118186;67;20619;-69
2021/12/24 04:04:05;;;;;;;69.40;25.15;;;7.70;99.90;;;;;;2133675;67;20379;-70
2021/12/24 04:06:47;;;;;;;87.28;29.08;;;7.80;99.90;;;;;;2132479;67;20258;-68
2021/12/24 04:09:30;;;;;;;93.85;30.67;;;7.80;99.90;;;;;;2132366;67;20929;-70
2021/12/24 04:12:13;;;;;;;95.38;33.22;;;7.80;99.90;;;;;;2135119;67;20304;-70
2021/12/24 04:14:54;;;;;;;89.43;31.08;;;7.90;99.90;;;;;;2141223;66;20186;-70
2021/12/24 04:17:39;;;;;;;87.90;31.05;;;8.00;99.90;;;;;;2144355;66;20332;-69
2021/12/24 04:26:22;;;;;;;77.97;26.90;;;8.00;99.90;;;;;;2153356;66;20284;-69
2021/12/24 04:29:08;;;;;;;59.53;24.63;;;8.00;99.90;;;;;;2143528;66;20204;-70
2021/12/24 04:32:06;;;;;;;63.20;24.77;;;8.00;99.90;;;;;;2142302;66;20206;-70
2021/12/24 04:34:50;;;;;;;64.15;23.98;;;8.00;99.90;;;;;;2136514;67;20180;-68
2021/12/24 05:03:54;;;;;;;94.63;36.85;;;8.30;99.90;;;;;;2128056;67;20280;-70
2021/12/24 05:06:48;;;;;;;77.70;32.20;;;8.30;99.90;;;;;;2124227;67;20294;-70
2021/12/24 05:09:32;;;;;;;82.18;34.10;;;8.40;99.90;;;;;;2131279;67;20354;-71
2021/12/24 05:12:14;;;;;;;68.55;30.15;;;8.40;99.90;;;;;;2130764;67;20183;-69
2021/12/24 05:14:57;;;;;;;69.07;31.33;;;8.40;99.90;;;;;;2135438;67;20198;-69
2021/12/24 05:23:33;;;;;;;77.68;32.78;;;8.50;99.90;;;;;;2136225;66;20306;-69
2021/12/24 05:26:18;;;;;;;65.97;29.05;;;8.50;99.90;;;;;;2142250;66;20205;-70
2021/12/24 05:29:03;;;;;;;69.32;32.13;;;8.40;99.90;;;;;;2142558;66;20880;-70
2021/12/24 05:31:46;;;;;;;75.30;33.53;;;8.50;99.90;;;;;;2140341;66;20263;-69
2021/12/24 05:34:31;;;;;;;57.78;27.25;;;8.50;99.90;;;;;;2140994;66;20451;-70
2021/12/24 05:37:13;;;;;;;66.53;30.40;;;8.40;99.90;;;;;;2131999;67;20195;-71
2021/12/24 05:39:58;;;;;;;69.25;31.92;;;8.50;99.90;;;;;;2126007;67;20219;-69
2021/12/24 05:42:59;;;;;;;64.10;32.20;;;8.50;99.90;;;;;;2139003;66;20213;-69
2021/12/24 05:45:44;;;;;;;78.50;33.38;;;8.40;99.90;;;;;;2131674;67;20328;-70
2021/12/24 05:48:26;;;;;;;61.70;28.45;;;8.50;99.90;;;;;;2135695;67;20274;-69
2021/12/24 05:51:09;;;;;;;58.17;27.20;;;8.50;99.90;;;;;;2128716;67;20248;-69
2021/12/24 05:53:51;;;;;;;66.75;28.55;;;8.50;99.90;;;;;;2128580;67;20292;-70
2021/12/24 05:56:33;;;;;;;52.50;23.35;;;8.50;99.90;;;;;;2138805;66;20211;-70
2021/12/24 05:59:15;;;;;;;46.15;23.65;;;8.50;99.90;;;;;;2127463;67;20830;-69
2021/12/24 06:01:57;;;;;;;59.88;26.40;;;8.50;99.90;;;;;;2131336;67;20639;-70
2021/12/24 06:04:40;;;;;;;52.45;24.55;;;8.50;99.90;;;;;;2138725;66;20288;-69
2021/12/24 06:07:26;;;;;;;49.03;23.73;;;8.50;99.90;;;;;;2140140;67;20215;-70
2021/12/24 06:10:11;;;;;;;54.63;23.88;;;8.40;99.90;;;;;;2137614;67;20413;-70
2021/12/24 06:12:53;;;;;;;41.15;21.08;;;8.40;99.90;;;;;;2128495;67;20780;-70
2021/12/24 06:15:49;;;;;;;47.00;20.00;;;8.50;99.90;;;;;;2105477;67;20237;-70
2021/12/24 06:18:40;;;;;;;49.58;20.85;;;8.50;99.90;;;;;;2099595;67;20323;-70
2021/12/24 06:21:26;;;;;;;51.63;20.88;;;8.40;99.90;;;;;;2118801;67;20763;-69
2021/12/24 06:24:13;;;;;;;41.72;17.42;;;8.40;99.90;;;;;;2112923;67;20247;-70
2021/12/24 06:26:59;;;;;;;39.50;18.02;;;8.40;99.90;;;;;;2116132;67;20347;-69
2021/12/24 06:29:44;;;;;;;40.92;17.70;;;8.40;99.90;;;;;;2118760;67;20317;-69
2021/12/24 06:32:26;;;;;;;37.58;17.02;;;8.40;99.90;;;;;;2123771;67;20925;-68
2021/12/24 06:35:10;;;;;;;39.45;17.73;;;8.40;99.90;;;;;;1902531;67;15101670;-70
2021/12/24 06:37:53;;;;;;;34.28;14.60;;;8.40;99.90;;;;;;2116032;67;20904;-71
2021/12/24 06:40:37;;;;;;;40.08;19.35;;;8.40;99.90;;;;;;2107445;67;20330;-70
2021/12/24 06:43:21;;;;;;;;;;;8.40;99.90;;;;;;2106603;67;20260;-71
2021/12/24 06:46:10;;;;;;;38.55;14.48;;;8.30;99.90;;;;;;2109329;67;20484;-70
2021/12/24 06:48:56;;;;;;;33.63;14.48;;;8.50;99.90;;;;;;2111425;67;20351;-69
2021/12/24 06:51:39;;;;;;;29.45;14.18;;;8.40;99.90;;;;;;2106342;67;20185;-71
2021/12/24 06:54:21;;;;;;;27.73;13.70;;;8.30;99.90;;;;;;2107894;67;20177;-70
2021/12/24 06:57:12;;;;;;;39.97;16.38;;;8.30;99.90;;;;;;2121408;67;20337;-69
2021/12/24 06:59:54;;;;;;;30.80;13.55;;;8.30;99.90;;;;;;2122501;67;20180;-70
2021/12/24 07:02:36;;;;;;;39.58;16.70;;;8.30;99.90;;;;;;2125775;67;20335;-70
2021/12/24 07:05:21;;;;;;;46.03;17.08;;;8.30;99.90;;;;;;2123353;67;20271;-70
2021/12/24 07:08:04;;;;;;;29.65;15.52;;;8.20;99.90;;;;;;2138857;66;20797;-70
2021/12/24 07:10:46;;;;;;;34.00;15.88;;;8.20;99.90;;;;;;2127404;67;20228;-70
2021/12/24 07:13:28;;;;;;;32.83;13.98;;;8.20;99.90;;;;;;2124244;67;20318;-70
2021/12/24 07:16:10;;;;;;;31.13;14.57;;;8.20;99.90;;;;;;2120234;67;20809;-69
2021/12/24 07:18:53;;;;;;;37.67;16.38;;;8.20;99.90;;;;;;2132537;67;20187;-70
2021/12/24 07:21:35;;;;;;;32.60;16.17;;;8.20;99.90;;;;;;2118680;67;20367;-71
2021/12/24 07:24:19;;;;;;;36.20;15.27;;;8.20;99.90;;;;;;2118621;67;20185;-70
2021/12/24 07:27:01;;;;;;;39.45;15.82;;;8.20;99.90;;;;;;2121480;67;20180;-71
2021/12/24 07:29:43;;;;;;;27.88;14.90;;;8.20;99.90;;;;;;2119788;67;20165;-70
2021/12/24 07:32:25;;;;;;;29.10;13.07;;;8.20;99.90;;;;;;2132572;67;20676;-70
2021/12/24 07:35:10;;;;;;;23.67;12.27;;;8.20;99.90;;;;;;2125056;67;20172;-70
2021/12/24 07:37:53;;;;;;;25.48;11.30;;;8.10;99.90;;;;;;2129605;67;20653;-69
2021/12/24 07:40:38;;;;;;;25.65;11.75;;;8.10;99.90;;;;;;2128036;67;20244;-69
2021/12/24 07:43:24;;;;;;;16.05;9.85;;;8.10;99.90;;;;;;2138444;66;20701;-70
2021/12/24 07:46:08;;;;;;;20.65;10.65;;;8.10;99.90;;;;;;2146527;66;20692;-69
2021/12/24 07:48:52;;;;;;;20.15;9.27;;;8.10;99.90;;;;;;2138695;66;20287;-69
2021/12/24 07:54:58;;;;;;;18.52;9.20;;;8.10;99.90;;;;;;2128658;66;20667;-69
2021/12/24 07:57:42;;;;;;;19.85;10.70;;;8.00;99.90;;;;;;2139426;67;20649;-70
2021/12/24 08:00:30;;;;;;;20.98;9.50;;;8.00;99.90;;;;;;2149996;66;20620;-70
2021/12/24 08:03:12;;;;;;;17.45;9.60;;;8.00;99.90;;;;;;2154467;66;20188;-70
2021/12/24 08:05:54;;;;;;;19.90;9.45;;;8.00;99.90;;;;;;2158418;66;20248;-70
2021/12/24 08:08:36;;;;;;;23.17;9.57;;;8.00;99.90;;;;;;2149159;66;20366;-70
2021/12/24 08:11:18;;;;;;;21.63;10.02;;;8.00;99.90;;;;;;2144332;66;20175;-70
2021/12/24 08:14:06;;;;;;;23.45;10.32;;;8.00;99.90;;;;;;2153263;66;20324;-70
2021/12/24 08:16:52;;;;;;;17.58;9.18;;;7.90;99.90;;;;;;2161104;66;20491;-71
2021/12/24 08:19:39;;;;;;;24.35;10.85;;;7.90;99.90;;;;;;2148851;66;20211;-70
2021/12/24 08:22:23;;;;;;;25.42;11.98;;;8.10;99.90;;;;;;2146712;66;20174;-71
2021/12/24 08:25:08;;;;;;;21.40;11.90;;;7.90;99.90;;;;;;2142627;66;20700;-72
2021/12/24 08:27:51;;;;;;;29.63;13.10;;;7.90;99.90;;;;;;2133566;66;20279;-72
2021/12/24 08:30:33;;;;;;;22.33;11.43;;;7.90;99.90;;;;;;2139574;66;20354;-73
2021/12/24 08:33:16;;;;;;;21.90;11.30;;;7.90;99.90;;;;;;2152567;66;20255;-71
2021/12/24 08:35:59;;;;;;;21.73;11.65;;;7.90;99.90;;;;;;2145012;66;20235;-70
2021/12/24 08:38:43;;;;;;;23.60;11.13;;;7.90;99.90;;;;;;2153500;66;20414;-71
2021/12/24 08:41:25;;;;;;;25.58;11.13;;;7.90;99.90;;;;;;2158359;66;20441;-71
2021/12/24 08:44:07;;;;;;;27.27;11.98;;;7.90;99.90;;;;;;2144645;66;20214;-72
2021/12/24 08:46:50;;;;;;;28.70;11.82;;;7.90;99.90;;;;;;2145718;66;20771;-70
2021/12/24 08:49:36;;;;;;;28.27;11.40;;;7.90;99.90;;;;;;2124629;67;20329;-71
2021/12/24 08:52:21;;;;;;;28.13;11.50;;;7.90;99.90;;;;;;2131949;67;20265;-70
2021/12/24 08:55:03;;;;;;;23.42;10.70;;;7.90;99.90;;;;;;2142350;66;20600;-69
2021/12/24 08:57:45;;;;;;;27.17;11.75;;;7.90;99.90;;;;;;2124219;67;20260;-72
2021/12/24 09:00:27;;;;;;;24.50;11.90;;;7.90;99.90;;;;;;2131782;67;20826;-71
2021/12/24 09:03:09;;;;;;;26.85;12.85;;;7.90;99.90;;;;;;2117716;67;20365;-70
2021/12/24 09:05:51;;;;;;;29.30;11.82;;;7.90;99.90;;;;;;2112433;67;20181;-71
2021/12/24 09:08:34;;;;;;;33.83;11.90;;;7.90;99.90;;;;;;2110497;67;20301;-70
2021/12/24 09:11:15;;;;;;;28.15;11.90;;;7.90;99.90;;;;;;2116741;67;20284;-71
2021/12/24 09:13:58;;;;;;;30.23;12.15;;;7.90;99.90;;;;;;2117214;67;20196;-71
2021/12/24 09:16:40;;;;;;;29.73;12.93;;;7.90;99.90;;;;;;2117515;67;20415;-71
2021/12/24 09:19:26;;;;;;;29.33;12.15;;;7.90;99.90;;;;;;2116487;67;20196;-71
2021/12/24 09:22:08;;;;;;;23.67;11.90;;;7.90;99.90;;;;;;2119878;67;20188;-72
2021/12/24 09:24:53;;;;;;;22.50;12.32;;;7.90;99.90;;;;;;2124195;67;20600;-70
2021/12/24 09:27:37;;;;;;;26.55;11.90;;;7.90;99.90;;;;;;2117590;67;20225;-71
2021/12/24 09:30:20;;;;;;;27.73;13.13;;;7.90;99.90;;;;;;2114177;67;20228;-73
2021/12/24 09:33:03;;;;;;;21.45;11.73;;;7.90;99.90;;;;;;2117499;67;20251;-73
2021/12/24 09:35:45;;;;;;;26.83;11.68;;;7.90;99.90;;;;;;2116922;67;20740;-70
2021/12/24 09:38:26;;;;;;;19.88;9.70;;;7.90;99.90;;;;;;2106972;67;20246;-71
2021/12/24 09:41:28;;;;;;;7.32;5.68;;;7.80;99.90;;;;;;2117098;67;20312;-71
2021/12/24 09:44:10;;;;;;;4.88;3.70;;;7.70;99.90;;;;;;2104872;67;20369;-72
2021/12/24 09:46:55;;;;;;;6.07;4.30;;;7.50;99.90;;;;;;2121426;67;20366;-71
2021/12/24 09:49:38;;;;;;;6.15;4.30;;;7.20;99.90;;;;;;2117286;67;20309;-73
2021/12/24 09:52:25;;;;;;;7.10;5.00;;;7.00;99.90;;;;;;2108814;67;20285;-71
2021/12/24 09:55:17;;;;;;;9.73;6.47;;;6.90;99.90;;;;;;2105317;67;20728;-71
2021/12/24 09:57:59;;;;;;;8.07;5.72;;;6.80;99.90;;;;;;2121691;67;20326;-70
2021/12/24 10:00:41;;;;;;;10.65;6.13;;;6.70;99.90;;;;;;2114009;67;20194;-69
2021/12/24 10:03:32;;;;;;;12.30;6.88;;;6.60;99.90;;;;;;2114728;67;20646;-72
2021/12/24 10:06:16;;;;;;;7.07;5.47;;;6.60;99.90;;;;;;2120413;67;20215;-70
2021/12/24 10:09:16;;;;;;;16.30;8.63;;;6.60;99.90;;;;;;2117018;67;20333;-71
2021/12/24 10:12:02;;;;;;;7.57;5.47;;;6.60;99.90;;;;;;2119916;67;20258;-70
2021/12/24 10:14:48;;;;;;;8.57;5.53;;;6.60;99.90;;;;;;2118021;67;20258;-71
2021/12/24 10:17:38;;;;;;;11.40;6.95;;;6.80;99.90;;;;;;2127559;67;20243;-71
2021/12/24 10:20:22;;;;;;;13.30;8.80;;;6.50;99.90;;;;;;2130291;67;20234;-68
2021/12/24 10:23:04;;;;;;;16.70;10.15;;;6.50;99.90;;;;;;2135405;67;20224;-70
2021/12/24 10:25:45;;;;;;;22.42;11.50;;;6.50;99.90;;;;;;2135277;67;20263;-70
2021/12/24 10:28:28;;;;;;;17.42;10.60;;;6.50;99.90;;;;;;2132008;67;20242;-70
2021/12/24 10:31:10;;;;;;;19.52;10.30;;;6.40;99.90;;;;;;2137952;66;20348;-70
2021/12/24 10:34:10;;;;;;;13.30;8.35;;;6.40;99.90;;;;;;2127528;66;20739;-70
2021/12/24 10:36:56;;;;;;;11.85;7.57;;;6.50;99.90;;;;;;2134969;66;20262;-71
2021/12/24 10:39:55;;;;;;;12.68;7.57;;;6.40;99.90;;;;;;2130472;67;20201;-72
2021/12/24 10:42:40;;;;;;;11.13;6.72;;;6.40;99.90;;;;;;2125976;67;20196;-72
2021/12/24 10:45:26;;;;;;;8.82;4.57;;;6.40;99.90;;;;;;2121447;67;20296;-72
2021/12/24 10:48:19;;;;;;;5.88;4.43;;;6.40;99.90;;;;;;2117236;67;20215;-70
2021/12/24 10:51:08;;;;;;;7.85;5.32;;;6.40;99.90;;;;;;2124968;67;20423;-73
2021/12/24 10:54:07;;;;;;;8.77;4.75;;;6.30;99.90;;;;;;2118968;67;20976;-71
2021/12/24 10:56:54;;;;;;;8.13;5.15;;;6.30;99.90;;;;;;2132019;67;20176;-71
2021/12/24 10:59:43;;;;;;;7.30;5.20;;;6.40;99.90;;;;;;2135038;66;20170;-72
2021/12/24 11:02:33;;;;;;;9.70;5.55;;;6.30;99.90;;;;;;2138922;66;20337;-72
2021/12/24 11:05:31;;;;;;;8.82;6.32;;;6.20;99.90;;;;;;2143423;66;20194;-70
2021/12/24 11:08:17;;;;;;;13.13;7.72;;;6.20;99.90;;;;;;2148844;66;20244;-73
2021/12/24 11:11:07;;;;;;;6.72;4.78;;;6.20;99.90;;;;;;2141670;66;20174;-71
2021/12/24 11:13:52;;;;;;;9.57;5.95;;;6.10;99.90;;;;;;2130321;67;20199;-70
2021/12/24 11:16:34;;;;;;;9.10;6.63;;;6.10;99.90;;;;;;2114946;67;20425;-71
2021/12/24 11:19:17;;;;;;;8.07;5.75;;;6.10;99.90;;;;;;2112842;67;20221;-70
2021/12/24 11:22:06;;;;;;;10.75;6.72;;;6.10;99.90;;;;;;2130300;67;20325;-72
2021/12/24 11:24:51;;;;;;;10.25;6.10;;;6.00;99.90;;;;;;2134694;67;20324;-72
2021/12/24 11:27:34;;;;;;;9.32;6.38;;;6.00;99.90;;;;;;2141629;66;20403;-70
2021/12/24 11:30:21;;;;;;;12.32;7.13;;;6.00;99.90;;;;;;2138769;66;20314;-68
2021/12/24 11:33:03;;;;;;;7.50;5.53;;;6.00;99.90;;;;;;2141560;66;20701;-69
2021/12/24 11:35:47;;;;;;;9.43;6.07;;;6.00;99.90;;;;;;2130985;67;20235;-70
2021/12/24 11:38:32;;;;;;;9.43;6.55;;;6.00;99.90;;;;;;2109854;67;20284;-73
2021/12/24 11:41:18;;;;;;;8.25;5.82;;;6.00;99.90;;;;;;2105265;67;20395;-72
2021/12/24 11:44:06;;;;;;;6.10;5.25;;;6.00;99.90;;;;;;2114599;67;20685;-72
2021/12/24 11:46:49;;;;;;;9.13;4.70;;;6.00;99.90;;;;;;2115100;67;20243;-69
2021/12/24 11:49:36;;;;;;;7.25;5.40;;;6.00;99.90;;;;;;2119793;67;20816;-70
2021/12/24 11:52:21;;;;;;;8.00;5.72;;;6.00;99.90;;;;;;2137326;66;20356;-70
2021/12/24 11:55:03;;;;;;;7.18;4.72;;;6.00;99.90;;;;;;2117555;67;20252;-70
2021/12/24 11:58:18;;;;;;;6.45;4.43;;;6.00;99.90;;;;;;2116868;67;20229;-71
2021/12/24 12:01:06;;;;;;;5.30;3.83;;;6.00;99.90;;;;;;2121530;67;20221;-70
2021/12/24 12:03:52;;;;;;;5.28;4.15;;;5.90;99.90;;;;;;2129018;67;20349;-71
2021/12/24 12:06:34;;;;;;;;;;;5.90;99.90;;;;;;2134952;67;20221;-70
2021/12/24 12:09:16;;;;;;;10.57;5.18;;;5.90;99.90;;;;;;2136803;66;20207;-71
2021/12/24 12:12:02;;;;;;;9.70;6.22;;;5.80;99.90;;;;;;2145369;66;20278;-70
2021/12/24 12:14:47;;;;;;;10.35;7.43;;;5.90;99.90;;;;;;2144694;66;20187;-71
2021/12/24 12:17:29;;;;;;;6.28;4.78;;;5.90;99.90;;;;;;2147963;66;20290;-70
2021/12/24 12:20:16;;;;;;;7.13;5.20;;;5.90;99.90;;;;;;2145675;66;20277;-70
2021/12/24 12:23:01;;;;;;;8.57;5.78;;;5.90;99.90;;;;;;2167408;66;20251;-70
2021/12/24 12:25:43;;;;;;;9.77;5.57;;;5.90;99.90;;;;;;2163374;66;20281;-70
2021/12/24 12:28:28;;;;;;;7.43;5.45;;;6.00;99.90;;;;;;2159946;66;20246;-71
2021/12/24 12:31:21;;;;;;;;;;;6.00;99.90;;;;;;2162990;66;20275;-69
2021/12/24 12:34:48;;;;;;;4.10;3.53;;;6.00;99.90;;;;;;2152127;66;20183;-70
2021/12/24 12:37:53;;;;;;;8.00;5.85;;;6.00;99.90;;;;;;2127938;67;20362;-69
2021/12/24 12:40:37;;;;;;;11.13;6.13;;;6.00;99.90;;;;;;2143915;66;20203;-69
2021/12/24 12:43:21;;;;;;;;;;;6.10;99.90;;;;;;2142479;66;20339;-68
2021/12/24 12:46:04;;;;;;;7.65;4.95;;;6.10;99.90;;;;;;2131220;67;20230;-70
2021/12/24 12:48:53;;;;;;;8.75;6.25;;;6.10;99.90;;;;;;2132072;66;20827;-69
2021/12/24 12:51:51;;;;;;;;;;;6.10;99.90;;;;;;2152374;66;20202;-70
2021/12/24 12:54:46;;;;;;;7.38;5.53;;;6.20;99.90;;;;;;2141879;66;20165;-72
2021/12/24 12:57:36;;;;;;;6.60;4.97;;;6.20;99.90;;;;;;2132933;67;20171;-69
2021/12/24 13:00:30;;;;;;;7.28;5.68;;;6.20;99.90;;;;;;2118683;67;20204;-72
2021/12/24 13:03:14;;;;;;;6.70;5.60;;;6.30;99.90;;;;;;2128343;66;20171;-71
2021/12/24 13:06:20;;;;;;;7.35;5.63;;;6.30;99.90;;;;;;2113621;67;20693;-71
2021/12/24 13:09:07;;;;;;;9.68;6.18;;;6.30;99.90;;;;;;2116993;67;20200;-70
2021/12/24 13:11:54;;;;;;;9.38;6.53;;;6.30;99.90;;;;;;2110957;67;20210;-70
2021/12/24 13:14:40;;;;;;;8.70;6.25;;;6.30;99.90;;;;;;2100554;67;20167;-70
2021/12/24 13:17:31;;;;;;;8.43;5.50;;;6.30;99.90;;;;;;2102346;67;20221;-72
2021/12/24 13:23:22;;;;;;;6.18;5.32;;;6.30;99.90;;;;;;2089245;68;21158;-71
2021/12/24 13:26:13;;;;;;;8.43;5.72;;;6.30;99.90;;;;;;2091933;68;20253;-71
2021/12/24 13:29:06;;;;;;;7.57;5.82;;;6.40;99.90;;;;;;2098623;68;20752;-71
2021/12/24 13:31:56;;;;;;;7.55;5.80;;;6.40;99.90;;;;;;2094568;68;20210;-69
2021/12/24 13:34:37;;;;;;;8.73;5.50;;;6.40;99.90;;;;;;2109914;67;20177;-71
2021/12/24 13:37:20;;;;;;;7.60;5.70;;;6.50;99.90;;;;;;2111588;67;20317;-72
2021/12/24 13:40:06;;;;;;;10.75;5.78;;;6.50;99.90;;;;;;2124928;67;20753;-71
2021/12/24 13:43:06;;;;;;;7.90;5.55;;;6.70;99.90;;;;;;2145933;66;20372;-73
2021/12/24 13:45:51;;;;;;;5.35;4.57;;;7.00;99.90;;;;;;2138631;67;20203;-74
2021/12/24 13:48:57;;;;;;;8.80;5.60;;;6.50;99.90;;;;;;2118302;67;20275;-73
2021/12/24 13:54:48;;;;;;;8.90;5.07;;;6.40;99.90;;;;;;2118206;67;20219;-73
2021/12/24 13:57:32;;;;;;;7.30;5.07;;;6.40;99.90;;;;;;2135692;66;20342;-72
2021/12/24 14:00:20;;;;;;;6.20;4.55;;;6.40;99.90;;;;;;2143272;66;20407;-73
2021/12/24 14:03:07;;;;;;;7.57;4.65;;;6.30;99.90;;;;;;2138439;66;20447;-73
2021/12/24 14:05:53;;;;;;;6.50;4.65;;;6.30;99.90;;;;;;2138854;67;20333;-74
2021/12/24 14:08:39;;;;;;;7.03;5.00;;;6.30;99.90;;;;;;2131560;67;20602;-73
2021/12/24 14:11:25;;;;;;;5.82;4.18;;;6.30;99.90;;;;;;2128992;67;20454;-74
2021/12/24 14:14:12;;;;;;;5.63;4.18;;;6.30;99.90;;;;;;2135288;66;20230;-73
2021/12/24 14:17:32;;;;;;;7.28;4.00;;;6.20;99.90;;;;;;2127702;67;20282;-74
2021/12/24 14:20:27;;;;;;;5.05;3.33;;;6.20;99.90;;;;;;2131176;67;20203;-74
2021/12/24 14:23:17;;;;;;;4.82;3.20;;;6.20;99.90;;;;;;2117861;67;20292;-74
2021/12/24 14:26:01;;;;;;;5.18;3.42;;;6.20;99.90;;;;;;2120998;67;20345;-72
2021/12/24 14:28:52;;;;;;;8.55;5.75;;;6.20;99.90;;;;;;2125505;67;20922;-72
2021/12/24 14:31:56;;;;;;;10.43;6.97;;;6.20;99.90;;;;;;2118409;67;20197;-73
2021/12/24 14:35:24;;;;;;;5.28;3.50;;;6.20;99.90;;;;;;2099726;67;20369;-73
2021/12/24 14:38:15;;;;;;;3.03;1.95;;;6.20;99.90;;;;;;2124440;67;20222;-73
2021/12/24 14:41:01;;;;;;;2.55;1.63;;;6.20;99.90;;;;;;2138922;67;20712;-73
2021/12/24 14:43:44;;;;;;;4.25;1.20;;;6.20;99.90;;;;;;2135931;67;21642;-73
2021/12/24 14:46:29;;;;;;;6.68;0.98;;;6.10;99.90;;;;;;2150707;66;20229;-73
2021/12/24 14:49:14;;;;;;;;;;;6.10;99.90;;;;;;2132676;67;20602;-74
2021/12/24 14:52:23;;;;;;;3.88;1.30;;;6.10;99.90;;;;;;2137773;67;20795;-74
2021/12/24 14:55:09;;;;;;;2.75;1.00;;;6.10;99.90;;;;;;2129633;67;20271;-74
2021/12/24 14:57:59;;;;;;;3.08;1.27;;;6.00;99.90;;;;;;2124524;67;20372;-74
2021/12/24 15:00:45;;;;;;;5.45;1.80;;;6.00;99.90;;;;;;2112571;67;20214;-72
2021/12/24 15:03:59;;;;;;;3.88;1.70;;;5.90;99.90;;;;;;2113996;67;20188;-73
2021/12/24 15:07:08;;;;;;;2.47;1.63;;;5.90;99.90;;;;;;2111012;67;20349;-73
2021/12/24 15:09:55;;;;;;;5.90;0.88;;;5.90;99.90;;;;;;2116598;67;20204;-72
2021/12/24 15:13:02;;;;;;;3.22;1.27;;;5.80;99.90;;;;;;2123824;67;20380;-74
2021/12/24 15:15:55;;;;;;;3.97;1.15;;;6.00;99.90;;;;;;2117479;67;20265;-74
2021/12/24 15:18:38;;;;;;;3.80;1.20;;;5.80;99.90;;;;;;2121126;67;20340;-74
2021/12/24 15:21:24;;;;;;;2.20;1.02;;;5.80;99.90;;;;;;2141054;66;20434;-74
2021/12/24 15:24:07;;;;;;;6.78;1.70;;;5.70;99.90;;;;;;2138538;66;20198;-74
2021/12/24 15:26:50;;;;;;;3.25;0.80;;;5.70;99.90;;;;;;2150222;66;20363;-74
2021/12/24 15:29:35;;;;;;;;;;;5.70;99.90;;;;;;2138948;66;20369;-73
2021/12/24 15:32:18;;;;;;;7.40;1.80;;;5.90;99.90;;;;;;2129019;67;20089;-75
2021/12/24 15:35:06;;;;;;;;;;;5.60;99.90;;;;;;2127008;67;20725;-74
2021/12/24 15:37:49;;;;;;;7.20;1.15;;;5.40;99.90;;;;;;2130132;66;20111;-74
2021/12/24 15:40:34;;;;;;;2.85;1.38;;;5.30;99.90;;;;;;2114748;67;21121;-75
2021/12/24 15:43:18;;;;;;;7.43;1.55;;;5.30;99.90;;;;;;2123387;67;20776;-74
2021/12/24 15:46:00;;;;;;;4.95;1.77;;;5.20;99.90;;;;;;2116851;67;20345;-74
2021/12/24 15:48:41;;;;;;;6.03;2.05;;;5.30;99.90;;;;;;2130807;67;20195;-74
2021/12/24 15:51:31;;;;;;;7.00;2.00;;;5.10;99.90;;;;;;2122660;67;20329;-75
2021/12/24 15:54:16;;;;;;;8.88;2.47;;;5.00;99.90;;;;;;2116955;67;20254;-74
2021/12/24 15:56:57;;;;;;;6.05;2.88;;;5.00;99.90;;;;;;2130855;67;20744;-74
2021/12/24 15:59:39;;;;;;;9.10;3.75;;;5.00;99.90;;;;;;2129029;66;20321;-74
2021/12/24 16:02:20;;;;;;;11.98;3.80;;;4.90;99.90;;;;;;2144930;66;20261;-75
2021/12/24 16:05:02;;;;;;;13.18;5.40;;;4.80;99.90;;;;;;2132307;66;20345;-74
2021/12/24 16:07:45;;;;;;;11.35;6.30;;;4.80;99.90;;;;;;2152538;66;20593;-74
2021/12/24 16:10:29;;;;;;;14.60;6.93;;;4.80;99.90;;;;;;2138189;66;20422;-74